Chapelhill, Indiana
Current Conditions -  °F | °C
As of 2:53 PM on Thursday 30 Oct 2014 (Local Time) from KBMG Reporting Station
Clear Clear  
Wind Chill: 53°   Ceiling: Unl
Heat Index: 53°   Visibility: 10mi
Dew Point: 34°   Wind: 3mph
Humidity: 48%   Direction: NA
Pressure: 30.09"   Gusts: NA
Location:  38.9403°N, 86.3374°W
Report Text: KBMG 301853Z VRB03KT 10SM CLR 12/01 A3009 RMK AO2 SLP191 T01170011
Loading
Personal Weather Stations






























Interactive Weather Map
Tropical Storm Tracking
New forecast layout! Learn more

10-Day Weather Forecast

Advertisements
Track Severe Weather on mobile